sensor_id;sensor_type;location;lat;lon;timestamp;P1;durP1;ratioP1;P2;durP2;ratioP2
45208;SDS011;30951;43.994;26.260;2024-01-16T00:00:31;20.52;;;9.85;;
45208;SDS011;30951;43.994;26.260;2024-01-16T00:02:57;22.25;;;10.48;;
45208;SDS011;30951;43.994;26.260;2024-01-16T00:05:22;22.73;;;9.75;;
45208;SDS011;30951;43.994;26.260;2024-01-16T00:07:48;18.50;;;9.05;;
45208;SDS011;30951;43.994;26.260;2024-01-16T00:10:14;18.50;;;9.90;;
45208;SDS011;30951;43.994;26.260;2024-01-16T00:12:40;25.98;;;10.65;;
45208;SDS011;30951;43.994;26.260;2024-01-16T00:15:06;19.67;;;9.05;;
45208;SDS011;30951;43.994;26.260;2024-01-16T00:17:32;16.65;;;9.13;;
45208;SDS011;30951;43.994;26.260;2024-01-16T00:19:58;22.67;;;10.50;;
45208;SDS011;30951;43.994;26.260;2024-01-16T00:22:28;16.00;;;9.63;;
45208;SDS011;30951;43.994;26.260;2024-01-16T00:24:54;19.40;;;9.65;;
45208;SDS011;30951;43.994;26.260;2024-01-16T00:27:20;20.17;;;9.88;;
45208;SDS011;30951;43.994;26.260;2024-01-16T00:29:46;20.08;;;10.25;;
45208;SDS011;30951;43.994;26.260;2024-01-16T00:32:11;27.30;;;10.63;;
45208;SDS011;30951;43.994;26.260;2024-01-16T00:34:41;24.30;;;10.27;;
45208;SDS011;30951;43.994;26.260;2024-01-16T00:37:07;20.65;;;10.63;;
45208;SDS011;30951;43.994;26.260;2024-01-16T00:39:32;20.42;;;9.85;;
45208;SDS011;30951;43.994;26.260;2024-01-16T00:41:58;18.58;;;10.50;;
45208;SDS011;30951;43.994;26.260;2024-01-16T00:44:25;17.20;;;8.93;;
45208;SDS011;30951;43.994;26.260;2024-01-16T00:46:50;27.42;;;10.60;;
45208;SDS011;30951;43.994;26.260;2024-01-16T00:49:16;20.63;;;10.02;;
45208;SDS011;30951;43.994;26.260;2024-01-16T00:51:41;22.45;;;10.43;;
45208;SDS011;30951;43.994;26.260;2024-01-16T00:54:07;19.75;;;10.80;;
45208;SDS011;30951;43.994;26.260;2024-01-16T00:56:33;22.40;;;11.10;;
45208;SDS011;30951;43.994;26.260;2024-01-16T00:59:00;21.75;;;10.32;;
45208;SDS011;30951;43.994;26.260;2024-01-16T01:01:25;20.83;;;10.63;;
45208;SDS011;30951;43.994;26.260;2024-01-16T01:03:51;23.23;;;11.20;;
45208;SDS011;30951;43.994;26.260;2024-01-16T01:06:17;24.98;;;11.52;;
45208;SDS011;30951;43.994;26.260;2024-01-16T01:08:42;19.13;;;10.18;;
45208;SDS011;30951;43.994;26.260;2024-01-16T01:11:08;24.88;;;10.98;;
45208;SDS011;30951;43.994;26.260;2024-01-16T01:13:33;22.30;;;11.25;;
45208;SDS011;30951;43.994;26.260;2024-01-16T01:15:59;23.70;;;11.10;;
45208;SDS011;30951;43.994;26.260;2024-01-16T01:18:25;28.00;;;12.70;;
45208;SDS011;30951;43.994;26.260;2024-01-16T01:20:51;27.05;;;13.18;;
45208;SDS011;30951;43.994;26.260;2024-01-16T01:23:16;27.33;;;13.18;;
45208;SDS011;30951;43.994;26.260;2024-01-16T01:25:42;26.23;;;13.10;;
45208;SDS011;30951;43.994;26.260;2024-01-16T01:28:08;23.70;;;11.77;;
45208;SDS011;30951;43.994;26.260;2024-01-16T01:30:33;27.55;;;12.93;;
45208;SDS011;30951;43.994;26.260;2024-01-16T01:32:59;30.02;;;14.05;;
45208;SDS011;30951;43.994;26.260;2024-01-16T01:35:25;30.98;;;16.15;;
45208;SDS011;30951;43.994;26.260;2024-01-16T01:37:50;22.20;;;11.10;;
45208;SDS011;30951;43.994;26.260;2024-01-16T01:40:16;26.58;;;12.55;;
45208;SDS011;30951;43.994;26.260;2024-01-16T01:42:41;30.05;;;13.75;;
45208;SDS011;30951;43.994;26.260;2024-01-16T01:45:10;29.55;;;13.35;;
45208;SDS011;30951;43.994;26.260;2024-01-16T01:47:40;24.08;;;12.85;;
45208;SDS011;30951;43.994;26.260;2024-01-16T01:50:09;25.52;;;11.82;;
45208;SDS011;30951;43.994;26.260;2024-01-16T01:52:36;21.23;;;12.00;;
45208;SDS011;30951;43.994;26.260;2024-01-16T01:55:04;27.67;;;13.73;;
45208;SDS011;30951;43.994;26.260;2024-01-16T01:57:32;27.80;;;13.90;;
45208;SDS011;30951;43.994;26.260;2024-01-16T01:59:58;32.30;;;15.98;;
45208;SDS011;30951;43.994;26.260;2024-01-16T02:02:24;32.28;;;15.25;;
45208;SDS011;30951;43.994;26.260;2024-01-16T02:04:50;27.15;;;13.52;;
45208;SDS011;30951;43.994;26.260;2024-01-16T02:07:16;31.77;;;14.70;;
45208;SDS011;30951;43.994;26.260;2024-01-16T02:09:43;29.02;;;15.52;;
45208;SDS011;30951;43.994;26.260;2024-01-16T02:12:09;33.25;;;16.00;;
45208;SDS011;30951;43.994;26.260;2024-01-16T02:14:34;28.45;;;14.95;;
45208;SDS011;30951;43.994;26.260;2024-01-16T02:17:00;33.03;;;15.50;;
45208;SDS011;30951;43.994;26.260;2024-01-16T02:19:25;37.35;;;17.45;;
45208;SDS011;30951;43.994;26.260;2024-01-16T02:21:51;34.13;;;16.67;;
45208;SDS011;30951;43.994;26.260;2024-01-16T02:24:20;38.15;;;17.73;;
45208;SDS011;30951;43.994;26.260;2024-01-16T02:26:46;32.13;;;17.00;;
45208;SDS011;30951;43.994;26.260;2024-01-16T02:29:12;32.65;;;16.00;;
45208;SDS011;30951;43.994;26.260;2024-01-16T02:31:38;37.47;;;17.92;;
45208;SDS011;30951;43.994;26.260;2024-01-16T02:34:04;34.45;;;17.77;;
45208;SDS011;30951;43.994;26.260;2024-01-16T02:36:29;34.70;;;18.50;;
45208;SDS011;30951;43.994;26.260;2024-01-16T02:38:55;41.28;;;18.33;;
45208;SDS011;30951;43.994;26.260;2024-01-16T02:41:21;41.45;;;19.38;;
45208;SDS011;30951;43.994;26.260;2024-01-16T02:43:47;37.53;;;18.42;;
45208;SDS011;30951;43.994;26.260;2024-01-16T02:46:16;43.22;;;20.75;;
45208;SDS011;30951;43.994;26.260;2024-01-16T02:48:41;40.80;;;19.45;;
45208;SDS011;30951;43.994;26.260;2024-01-16T02:51:07;39.97;;;20.83;;
45208;SDS011;30951;43.994;26.260;2024-01-16T02:53:33;40.67;;;20.45;;
45208;SDS011;30951;43.994;26.260;2024-01-16T02:55:59;36.08;;;19.90;;
45208;SDS011;30951;43.994;26.260;2024-01-16T02:58:28;38.30;;;20.23;;
45208;SDS011;30951;43.994;26.260;2024-01-16T03:00:54;43.70;;;19.02;;
45208;SDS011;30951;43.994;26.260;2024-01-16T03:03:20;46.08;;;20.38;;
45208;SDS011;30951;43.994;26.260;2024-01-16T03:05:46;41.88;;;19.92;;
45208;SDS011;30951;43.994;26.260;2024-01-16T03:08:12;40.10;;;20.13;;
45208;SDS011;30951;43.994;26.260;2024-01-16T03:10:37;40.88;;;21.15;;
45208;SDS011;30951;43.994;26.260;2024-01-16T03:13:03;44.58;;;23.40;;
45208;SDS011;30951;43.994;26.260;2024-01-16T03:15:29;42.25;;;23.00;;
45208;SDS011;30951;43.994;26.260;2024-01-16T03:17:57;43.90;;;22.73;;
45208;SDS011;30951;43.994;26.260;2024-01-16T03:20:23;51.70;;;24.73;;
45208;SDS011;30951;43.994;26.260;2024-01-16T03:22:49;51.67;;;25.83;;
45208;SDS011;30951;43.994;26.260;2024-01-16T03:25:15;50.22;;;24.35;;
45208;SDS011;30951;43.994;26.260;2024-01-16T03:27:42;46.88;;;24.10;;
45208;SDS011;30951;43.994;26.260;2024-01-16T03:30:07;44.85;;;22.40;;
45208;SDS011;30951;43.994;26.260;2024-01-16T03:32:34;48.47;;;24.25;;
45208;SDS011;30951;43.994;26.260;2024-01-16T03:35:00;44.05;;;23.98;;
45208;SDS011;30951;43.994;26.260;2024-01-16T03:37:26;43.30;;;22.58;;
45208;SDS011;30951;43.994;26.260;2024-01-16T03:39:51;39.92;;;22.02;;
45208;SDS011;30951;43.994;26.260;2024-01-16T03:42:17;42.80;;;21.27;;
45208;SDS011;30951;43.994;26.260;2024-01-16T03:44:42;39.42;;;21.65;;
45208;SDS011;30951;43.994;26.260;2024-01-16T03:47:08;50.67;;;23.65;;
45208;SDS011;30951;43.994;26.260;2024-01-16T03:49:34;57.15;;;25.65;;
45208;SDS011;30951;43.994;26.260;2024-01-16T03:52:00;46.85;;;23.83;;
45208;SDS011;30951;43.994;26.260;2024-01-16T03:54:25;51.88;;;24.30;;
45208;SDS011;30951;43.994;26.260;2024-01-16T03:56:51;53.40;;;26.35;;
45208;SDS011;30951;43.994;26.260;2024-01-16T03:59:18;49.47;;;24.42;;
45208;SDS011;30951;43.994;26.260;2024-01-16T04:01:43;47.58;;;24.08;;
45208;SDS011;30951;43.994;26.260;2024-01-16T04:04:10;48.83;;;24.77;;
45208;SDS011;30951;43.994;26.260;2024-01-16T04:06:36;50.00;;;24.13;;
45208;SDS011;30951;43.994;26.260;2024-01-16T04:09:02;42.78;;;22.90;;
45208;SDS011;30951;43.994;26.260;2024-01-16T04:11:29;50.58;;;25.08;;
45208;SDS011;30951;43.994;26.260;2024-01-16T04:13:54;50.33;;;22.65;;
45208;SDS011;30951;43.994;26.260;2024-01-16T04:16:20;48.28;;;24.92;;
45208;SDS011;30951;43.994;26.260;2024-01-16T04:18:46;43.35;;;22.95;;
45208;SDS011;30951;43.994;26.260;2024-01-16T04:21:12;39.38;;;21.45;;
45208;SDS011;30951;43.994;26.260;2024-01-16T04:23:38;37.72;;;21.25;;
45208;SDS011;30951;43.994;26.260;2024-01-16T04:26:03;43.80;;;21.40;;
45208;SDS011;30951;43.994;26.260;2024-01-16T04:28:29;41.30;;;20.77;;
45208;SDS011;30951;43.994;26.260;2024-01-16T04:30:54;35.00;;;19.35;;
45208;SDS011;30951;43.994;26.260;2024-01-16T04:33:20;43.05;;;21.10;;
45208;SDS011;30951;43.994;26.260;2024-01-16T04:35:46;35.53;;;19.58;;
45208;SDS011;30951;43.994;26.260;2024-01-16T04:38:12;40.75;;;21.27;;
45208;SDS011;30951;43.994;26.260;2024-01-16T04:40:37;43.33;;;21.38;;
45208;SDS011;30951;43.994;26.260;2024-01-16T04:43:03;36.33;;;19.33;;
45208;SDS011;30951;43.994;26.260;2024-01-16T04:45:28;40.13;;;20.58;;
45208;SDS011;30951;43.994;26.260;2024-01-16T04:47:54;37.70;;;19.98;;
45208;SDS011;30951;43.994;26.260;2024-01-16T04:50:19;32.20;;;19.17;;
45208;SDS011;30951;43.994;26.260;2024-01-16T04:52:45;37.28;;;21.80;;
45208;SDS011;30951;43.994;26.260;2024-01-16T04:55:10;41.33;;;20.17;;
45208;SDS011;30951;43.994;26.260;2024-01-16T04:57:36;37.03;;;19.50;;
45208;SDS011;30951;43.994;26.260;2024-01-16T05:00:02;38.60;;;20.08;;
45208;SDS011;30951;43.994;26.260;2024-01-16T05:02:32;37.05;;;21.95;;
45208;SDS011;30951;43.994;26.260;2024-01-16T05:04:57;36.08;;;19.77;;
45208;SDS011;30951;43.994;26.260;2024-01-16T05:07:23;38.47;;;20.02;;
45208;SDS011;30951;43.994;26.260;2024-01-16T05:09:49;36.47;;;17.65;;
45208;SDS011;30951;43.994;26.260;2024-01-16T05:12:15;30.98;;;16.63;;
45208;SDS011;30951;43.994;26.260;2024-01-16T05:14:40;32.08;;;16.15;;
45208;SDS011;30951;43.994;26.260;2024-01-16T05:17:06;38.05;;;19.05;;
45208;SDS011;30951;43.994;26.260;2024-01-16T05:19:31;35.05;;;17.67;;
45208;SDS011;30951;43.994;26.260;2024-01-16T05:21:57;19.75;;;10.65;;
45208;SDS011;30951;43.994;26.260;2024-01-16T05:24:22;33.13;;;16.10;;
45208;SDS011;30951;43.994;26.260;2024-01-16T05:26:48;36.63;;;19.85;;
45208;SDS011;30951;43.994;26.260;2024-01-16T05:29:13;30.50;;;14.20;;
45208;SDS011;30951;43.994;26.260;2024-01-16T05:31:40;36.20;;;18.58;;
45208;SDS011;30951;43.994;26.260;2024-01-16T05:34:06;34.08;;;18.75;;
45208;SDS011;30951;43.994;26.260;2024-01-16T05:36:32;45.42;;;22.08;;
45208;SDS011;30951;43.994;26.260;2024-01-16T05:38:57;41.42;;;18.98;;
45208;SDS011;30951;43.994;26.260;2024-01-16T05:41:23;31.30;;;16.20;;
45208;SDS011;30951;43.994;26.260;2024-01-16T05:43:48;35.38;;;18.27;;
45208;SDS011;30951;43.994;26.260;2024-01-16T05:46:14;26.35;;;14.10;;
45208;SDS011;30951;43.994;26.260;2024-01-16T05:48:39;42.67;;;21.48;;
45208;SDS011;30951;43.994;26.260;2024-01-16T05:51:04;35.67;;;14.38;;
45208;SDS011;30951;43.994;26.260;2024-01-16T05:53:30;39.83;;;21.52;;
45208;SDS011;30951;43.994;26.260;2024-01-16T05:55:55;50.22;;;21.38;;
45208;SDS011;30951;43.994;26.260;2024-01-16T05:58:22;42.45;;;20.40;;
45208;SDS011;30951;43.994;26.260;2024-01-16T06:00:47;31.70;;;18.95;;
45208;SDS011;30951;43.994;26.260;2024-01-16T06:03:13;38.10;;;17.65;;
45208;SDS011;30951;43.994;26.260;2024-01-16T06:05:38;48.42;;;23.40;;
45208;SDS011;30951;43.994;26.260;2024-01-16T06:08:04;36.42;;;17.55;;
45208;SDS011;30951;43.994;26.260;2024-01-16T06:10:30;43.22;;;19.77;;
45208;SDS011;30951;43.994;26.260;2024-01-16T06:12:56;38.92;;;16.50;;
45208;SDS011;30951;43.994;26.260;2024-01-16T06:15:22;44.58;;;23.00;;
45208;SDS011;30951;43.994;26.260;2024-01-16T06:17:48;43.80;;;22.52;;
45208;SDS011;30951;43.994;26.260;2024-01-16T06:20:14;42.85;;;22.15;;
45208;SDS011;30951;43.994;26.260;2024-01-16T06:22:39;30.58;;;15.07;;
45208;SDS011;30951;43.994;26.260;2024-01-16T06:25:05;48.20;;;20.80;;
45208;SDS011;30951;43.994;26.260;2024-01-16T06:27:31;46.20;;;20.33;;
45208;SDS011;30951;43.994;26.260;2024-01-16T06:29:57;43.33;;;20.65;;
45208;SDS011;30951;43.994;26.260;2024-01-16T06:32:23;52.85;;;26.15;;
45208;SDS011;30951;43.994;26.260;2024-01-16T06:34:49;48.22;;;22.67;;
45208;SDS011;30951;43.994;26.260;2024-01-16T06:37:14;41.42;;;19.27;;
45208;SDS011;30951;43.994;26.260;2024-01-16T06:39:40;43.78;;;20.50;;
45208;SDS011;30951;43.994;26.260;2024-01-16T06:42:05;56.30;;;25.73;;
45208;SDS011;30951;43.994;26.260;2024-01-16T06:44:31;42.88;;;20.15;;
45208;SDS011;30951;43.994;26.260;2024-01-16T06:46:56;35.38;;;18.55;;
45208;SDS011;30951;43.994;26.260;2024-01-16T06:49:22;47.10;;;22.95;;
45208;SDS011;30951;43.994;26.260;2024-01-16T06:51:47;34.47;;;18.23;;
45208;SDS011;30951;43.994;26.260;2024-01-16T06:54:13;30.45;;;14.40;;
45208;SDS011;30951;43.994;26.260;2024-01-16T06:56:38;41.83;;;21.50;;
45208;SDS011;30951;43.994;26.260;2024-01-16T06:59:04;37.88;;;22.95;;
45208;SDS011;30951;43.994;26.260;2024-01-16T07:01:29;38.65;;;21.98;;
45208;SDS011;30951;43.994;26.260;2024-01-16T07:03:55;45.60;;;25.08;;
45208;SDS011;30951;43.994;26.260;2024-01-16T07:06:21;36.65;;;18.80;;
45208;SDS011;30951;43.994;26.260;2024-01-16T07:08:46;37.50;;;19.13;;
45208;SDS011;30951;43.994;26.260;2024-01-16T07:11:12;33.78;;;18.35;;
45208;SDS011;30951;43.994;26.260;2024-01-16T07:13:43;23.50;;;12.23;;
45208;SDS011;30951;43.994;26.260;2024-01-16T07:16:09;37.55;;;16.42;;
45208;SDS011;30951;43.994;26.260;2024-01-16T07:18:36;32.85;;;18.05;;
45208;SDS011;30951;43.994;26.260;2024-01-16T07:21:02;31.60;;;17.83;;
45208;SDS011;30951;43.994;26.260;2024-01-16T07:23:29;26.83;;;13.73;;
45208;SDS011;30951;43.994;26.260;2024-01-16T07:25:55;31.13;;;15.35;;
45208;SDS011;30951;43.994;26.260;2024-01-16T07:28:20;31.90;;;16.95;;
45208;SDS011;30951;43.994;26.260;2024-01-16T07:30:47;25.33;;;13.63;;
45208;SDS011;30951;43.994;26.260;2024-01-16T07:33:13;28.88;;;14.15;;
45208;SDS011;30951;43.994;26.260;2024-01-16T07:35:38;24.23;;;12.15;;
45208;SDS011;30951;43.994;26.260;2024-01-16T07:38:06;28.95;;;11.48;;
45208;SDS011;30951;43.994;26.260;2024-01-16T07:40:31;21.70;;;10.77;;
45208;SDS011;30951;43.994;26.260;2024-01-16T07:42:57;24.27;;;12.88;;
45208;SDS011;30951;43.994;26.260;2024-01-16T07:45:22;35.38;;;13.55;;
45208;SDS011;30951;43.994;26.260;2024-01-16T07:47:48;23.65;;;12.52;;
45208;SDS011;30951;43.994;26.260;2024-01-16T07:50:14;20.52;;;10.68;;
45208;SDS011;30951;43.994;26.260;2024-01-16T07:52:39;18.98;;;9.55;;
45208;SDS011;30951;43.994;26.260;2024-01-16T07:55:06;17.50;;;9.50;;
45208;SDS011;30951;43.994;26.260;2024-01-16T07:57:31;14.07;;;7.57;;
45208;SDS011;30951;43.994;26.260;2024-01-16T07:59:57;17.48;;;8.63;;
45208;SDS011;30951;43.994;26.260;2024-01-16T08:02:22;16.58;;;10.02;;
45208;SDS011;30951;43.994;26.260;2024-01-16T08:04:51;16.02;;;8.70;;
45208;SDS011;30951;43.994;26.260;2024-01-16T08:07:17;16.60;;;7.20;;
45208;SDS011;30951;43.994;26.260;2024-01-16T08:09:42;21.15;;;8.55;;
45208;SDS011;30951;43.994;26.260;2024-01-16T08:12:08;16.23;;;8.52;;
45208;SDS011;30951;43.994;26.260;2024-01-16T08:14:33;12.05;;;6.13;;
45208;SDS011;30951;43.994;26.260;2024-01-16T08:16:59;13.35;;;7.43;;
45208;SDS011;30951;43.994;26.260;2024-01-16T08:19:25;18.95;;;8.20;;
45208;SDS011;30951;43.994;26.260;2024-01-16T08:21:50;16.02;;;6.25;;
45208;SDS011;30951;43.994;26.260;2024-01-16T08:24:16;9.32;;;4.60;;
45208;SDS011;30951;43.994;26.260;2024-01-16T08:26:42;15.48;;;7.65;;
45208;SDS011;30951;43.994;26.260;2024-01-16T08:29:07;5.80;;;3.55;;
45208;SDS011;30951;43.994;26.260;2024-01-16T08:31:33;15.23;;;7.70;;
45208;SDS011;30951;43.994;26.260;2024-01-16T08:33:58;15.60;;;6.97;;
45208;SDS011;30951;43.994;26.260;2024-01-16T08:36:24;10.25;;;5.93;;
45208;SDS011;30951;43.994;26.260;2024-01-16T08:38:49;11.40;;;5.35;;
45208;SDS011;30951;43.994;26.260;2024-01-16T08:41:14;8.35;;;3.80;;
45208;SDS011;30951;43.994;26.260;2024-01-16T08:43:40;6.88;;;4.70;;
45208;SDS011;30951;43.994;26.260;2024-01-16T08:46:05;6.60;;;3.72;;
45208;SDS011;30951;43.994;26.260;2024-01-16T08:48:32;7.00;;;3.97;;
45208;SDS011;30951;43.994;26.260;2024-01-16T08:50:57;8.90;;;4.07;;
45208;SDS011;30951;43.994;26.260;2024-01-16T08:53:24;5.97;;;3.72;;
45208;SDS011;30951;43.994;26.260;2024-01-16T08:55:49;4.75;;;3.25;;
45208;SDS011;30951;43.994;26.260;2024-01-16T08:58:15;6.05;;;3.90;;
45208;SDS011;30951;43.994;26.260;2024-01-16T09:00:40;4.00;;;2.90;;
45208;SDS011;30951;43.994;26.260;2024-01-16T09:03:06;8.10;;;3.65;;
45208;SDS011;30951;43.994;26.260;2024-01-16T09:05:33;7.80;;;3.97;;
45208;SDS011;30951;43.994;26.260;2024-01-16T09:08:01;5.32;;;3.20;;
45208;SDS011;30951;43.994;26.260;2024-01-16T09:10:27;2.65;;;1.95;;
45208;SDS011;30951;43.994;26.260;2024-01-16T09:12:54;5.18;;;3.08;;
45208;SDS011;30951;43.994;26.260;2024-01-16T09:15:19;7.80;;;2.83;;
45208;SDS011;30951;43.994;26.260;2024-01-16T09:17:45;2.05;;;1.50;;
45208;SDS011;30951;43.994;26.260;2024-01-16T09:20:11;5.93;;;2.00;;
45208;SDS011;30951;43.994;26.260;2024-01-16T09:22:37;2.58;;;2.00;;
45208;SDS011;30951;43.994;26.260;2024-01-16T09:25:02;3.30;;;2.03;;
45208;SDS011;30951;43.994;26.260;2024-01-16T09:27:28;5.65;;;2.58;;
45208;SDS011;30951;43.994;26.260;2024-01-16T09:29:54;3.08;;;1.95;;
45208;SDS011;30951;43.994;26.260;2024-01-16T09:32:19;3.67;;;2.00;;
45208;SDS011;30951;43.994;26.260;2024-01-16T09:34:45;2.55;;;1.60;;
45208;SDS011;30951;43.994;26.260;2024-01-16T09:37:10;4.00;;;2.15;;
45208;SDS011;30951;43.994;26.260;2024-01-16T09:39:40;1.85;;;1.17;;
45208;SDS011;30951;43.994;26.260;2024-01-16T09:42:06;3.47;;;1.92;;
45208;SDS011;30951;43.994;26.260;2024-01-16T09:44:31;2.08;;;1.23;;
45208;SDS011;30951;43.994;26.260;2024-01-16T09:46:59;3.20;;;1.50;;
45208;SDS011;30951;43.994;26.260;2024-01-16T09:49:26;3.03;;;1.70;;
45208;SDS011;30951;43.994;26.260;2024-01-16T09:51:52;3.92;;;1.60;;
45208;SDS011;30951;43.994;26.260;2024-01-16T09:54:18;2.80;;;1.83;;
45208;SDS011;30951;43.994;26.260;2024-01-16T09:56:44;2.55;;;1.75;;
45208;SDS011;30951;43.994;26.260;2024-01-16T09:59:12;4.22;;;1.88;;
45208;SDS011;30951;43.994;26.260;2024-01-16T10:01:43;4.03;;;1.83;;
45208;SDS011;30951;43.994;26.260;2024-01-16T10:04:09;2.88;;;1.58;;
45208;SDS011;30951;43.994;26.260;2024-01-16T10:06:34;2.50;;;1.60;;
45208;SDS011;30951;43.994;26.260;2024-01-16T10:09:01;3.47;;;2.17;;
45208;SDS011;30951;43.994;26.260;2024-01-16T10:11:27;5.07;;;1.73;;
45208;SDS011;30951;43.994;26.260;2024-01-16T10:13:53;2.90;;;2.00;;
45208;SDS011;30951;43.994;26.260;2024-01-16T10:16:19;3.95;;;2.25;;
45208;SDS011;30951;43.994;26.260;2024-01-16T10:18:46;1.60;;;1.20;;
45208;SDS011;30951;43.994;26.260;2024-01-16T10:21:20;3.08;;;1.45;;
45208;SDS011;30951;43.994;26.260;2024-01-16T10:23:47;2.65;;;1.70;;
45208;SDS011;30951;43.994;26.260;2024-01-16T10:26:12;4.70;;;2.15;;
45208;SDS011;30951;43.994;26.260;2024-01-16T10:28:39;6.18;;;2.42;;
45208;SDS011;30951;43.994;26.260;2024-01-16T10:31:07;5.68;;;2.20;;
45208;SDS011;30951;43.994;26.260;2024-01-16T10:33:33;5.43;;;3.25;;
45208;SDS011;30951;43.994;26.260;2024-01-16T10:38:40;5.00;;;2.65;;
45208;SDS011;30951;43.994;26.260;2024-01-16T10:43:32;3.78;;;2.15;;
45208;SDS011;30951;43.994;26.260;2024-01-16T10:46:10;6.00;;;2.15;;
45208;SDS011;30951;43.994;26.260;2024-01-16T10:48:44;3.38;;;1.90;;
45208;SDS011;30951;43.994;26.260;2024-01-16T10:51:10;4.93;;;2.05;;
45208;SDS011;30951;43.994;26.260;2024-01-16T10:53:41;3.55;;;1.73;;
45208;SDS011;30951;43.994;26.260;2024-01-16T10:56:09;3.28;;;2.25;;
45208;SDS011;30951;43.994;26.260;2024-01-16T10:58:35;4.20;;;2.42;;
45208;SDS011;30951;43.994;26.260;2024-01-16T11:01:02;5.95;;;3.33;;
45208;SDS011;30951;43.994;26.260;2024-01-16T11:03:46;4.97;;;2.28;;
45208;SDS011;30951;43.994;26.260;2024-01-16T11:06:18;3.58;;;1.50;;
45208;SDS011;30951;43.994;26.260;2024-01-16T11:08:50;2.42;;;1.67;;
45208;SDS011;30951;43.994;26.260;2024-01-16T11:11:16;4.43;;;2.58;;
45208;SDS011;30951;43.994;26.260;2024-01-16T11:13:42;6.25;;;2.90;;
45208;SDS011;30951;43.994;26.260;2024-01-16T11:16:12;12.73;;;5.15;;
45208;SDS011;30951;43.994;26.260;2024-01-16T11:18:38;13.52;;;3.85;;
45208;SDS011;30951;43.994;26.260;2024-01-16T11:21:08;7.72;;;3.38;;
45208;SDS011;30951;43.994;26.260;2024-01-16T11:23:36;2.40;;;1.83;;
45208;SDS011;30951;43.994;26.260;2024-01-16T11:26:37;3.20;;;2.08;;
45208;SDS011;30951;43.994;26.260;2024-01-16T11:28:58;5.57;;;2.45;;
45208;SDS011;30951;43.994;26.260;2024-01-16T11:31:31;3.85;;;2.38;;
45208;SDS011;30951;43.994;26.260;2024-01-16T11:34:00;1.77;;;1.58;;
45208;SDS011;30951;43.994;26.260;2024-01-16T11:39:11;4.15;;;2.70;;
45208;SDS011;30951;43.994;26.260;2024-01-16T11:47:01;4.57;;;2.80;;
45208;SDS011;30951;43.994;26.260;2024-01-16T11:49:28;6.07;;;2.47;;
45208;SDS011;30951;43.994;26.260;2024-01-16T11:51:55;5.18;;;2.83;;
45208;SDS011;30951;43.994;26.260;2024-01-16T11:54:21;8.88;;;3.22;;
45208;SDS011;30951;43.994;26.260;2024-01-16T11:56:53;6.20;;;2.70;;
45208;SDS011;30951;43.994;26.260;2024-01-16T11:59:59;6.00;;;3.78;;
45208;SDS011;30951;43.994;26.260;2024-01-16T12:02:34;4.93;;;3.13;;
45208;SDS011;30951;43.994;26.260;2024-01-16T12:05:19;6.90;;;3.45;;
45208;SDS011;30951;43.994;26.260;2024-01-16T12:07:46;9.70;;;3.20;;
45208;SDS011;30951;43.994;26.260;2024-01-16T12:10:15;5.72;;;2.95;;
45208;SDS011;30951;43.994;26.260;2024-01-16T12:12:42;4.75;;;3.28;;
45208;SDS011;30951;43.994;26.260;2024-01-16T12:15:12;9.18;;;4.03;;
45208;SDS011;30951;43.994;26.260;2024-01-16T12:20:20;4.25;;;2.40;;
45208;SDS011;30951;43.994;26.260;2024-01-16T12:22:52;5.50;;;2.83;;
45208;SDS011;30951;43.994;26.260;2024-01-16T12:25:25;5.63;;;3.03;;
45208;SDS011;30951;43.994;26.260;2024-01-16T12:28:07;8.55;;;3.22;;
45208;SDS011;30951;43.994;26.260;2024-01-16T12:30:36;4.78;;;2.42;;
45208;SDS011;30951;43.994;26.260;2024-01-16T12:33:06;3.47;;;1.88;;
45208;SDS011;30951;43.994;26.260;2024-01-16T12:35:38;7.85;;;3.38;;
45208;SDS011;30951;43.994;26.260;2024-01-16T12:38:06;7.28;;;3.78;;
45208;SDS011;30951;43.994;26.260;2024-01-16T12:40:48;7.88;;;3.30;;
45208;SDS011;30951;43.994;26.260;2024-01-16T12:43:17;7.72;;;3.17;;
45208;SDS011;30951;43.994;26.260;2024-01-16T12:45:54;6.78;;;3.72;;
45208;SDS011;30951;43.994;26.260;2024-01-16T12:48:24;6.57;;;3.30;;
45208;SDS011;30951;43.994;26.260;2024-01-16T12:50:50;5.13;;;2.58;;
45208;SDS011;30951;43.994;26.260;2024-01-16T12:53:16;4.68;;;3.08;;
45208;SDS011;30951;43.994;26.260;2024-01-16T12:55:46;8.57;;;4.10;;
45208;SDS011;30951;43.994;26.260;2024-01-16T12:58:22;8.65;;;3.72;;
45208;SDS011;30951;43.994;26.260;2024-01-16T13:00:50;8.02;;;3.25;;
45208;SDS011;30951;43.994;26.260;2024-01-16T13:03:17;12.13;;;4.03;;
45208;SDS011;30951;43.994;26.260;2024-01-16T13:05:44;6.60;;;2.97;;
45208;SDS011;30951;43.994;26.260;2024-01-16T13:08:17;15.50;;;3.45;;
45208;SDS011;30951;43.994;26.260;2024-01-16T13:10:43;5.97;;;2.88;;
45208;SDS011;30951;43.994;26.260;2024-01-16T13:15:45;8.02;;;2.97;;
45208;SDS011;30951;43.994;26.260;2024-01-16T13:18:17;2.33;;;1.60;;
45208;SDS011;30951;43.994;26.260;2024-01-16T13:20:50;4.93;;;2.60;;
45208;SDS011;30951;43.994;26.260;2024-01-16T13:23:17;2.92;;;1.58;;
45208;SDS011;30951;43.994;26.260;2024-01-16T13:25:43;1.80;;;1.65;;
45208;SDS011;30951;43.994;26.260;2024-01-16T13:28:10;3.42;;;2.55;;
45208;SDS011;30951;43.994;26.260;2024-01-16T13:30:37;3.30;;;1.95;;
45208;SDS011;30951;43.994;26.260;2024-01-16T13:33:03;5.32;;;2.33;;
45208;SDS011;30951;43.994;26.260;2024-01-16T13:35:29;4.47;;;2.75;;
45208;SDS011;30951;43.994;26.260;2024-01-16T13:37:55;3.88;;;2.20;;
45208;SDS011;30951;43.994;26.260;2024-01-16T13:40:21;5.55;;;3.22;;
45208;SDS011;30951;43.994;26.260;2024-01-16T13:42:47;4.45;;;2.05;;
45208;SDS011;30951;43.994;26.260;2024-01-16T13:45:14;4.45;;;3.00;;
45208;SDS011;30951;43.994;26.260;2024-01-16T13:47:39;3.35;;;2.33;;
45208;SDS011;30951;43.994;26.260;2024-01-16T13:50:06;4.28;;;2.33;;
45208;SDS011;30951;43.994;26.260;2024-01-16T13:52:32;4.50;;;2.60;;
45208;SDS011;30951;43.994;26.260;2024-01-16T13:54:58;3.40;;;2.00;;
45208;SDS011;30951;43.994;26.260;2024-01-16T13:57:24;2.33;;;1.80;;
45208;SDS011;30951;43.994;26.260;2024-01-16T13:59:50;6.22;;;2.90;;
45208;SDS011;30951;43.994;26.260;2024-01-16T14:02:16;4.90;;;3.00;;
45208;SDS011;30951;43.994;26.260;2024-01-16T14:04:41;4.53;;;2.88;;
45208;SDS011;30951;43.994;26.260;2024-01-16T14:07:07;5.43;;;2.60;;
45208;SDS011;30951;43.994;26.260;2024-01-16T14:09:33;3.55;;;2.40;;
45208;SDS011;30951;43.994;26.260;2024-01-16T14:11:59;7.43;;;3.67;;
45208;SDS011;30951;43.994;26.260;2024-01-16T14:14:24;5.68;;;3.13;;
45208;SDS011;30951;43.994;26.260;2024-01-16T14:16:50;4.82;;;2.90;;
45208;SDS011;30951;43.994;26.260;2024-01-16T14:19:15;3.10;;;2.38;;
45208;SDS011;30951;43.994;26.260;2024-01-16T14:21:42;7.65;;;2.53;;
45208;SDS011;30951;43.994;26.260;2024-01-16T14:24:07;7.03;;;3.78;;
45208;SDS011;30951;43.994;26.260;2024-01-16T14:26:34;8.63;;;3.42;;
45208;SDS011;30951;43.994;26.260;2024-01-16T14:29:00;4.93;;;2.95;;
45208;SDS011;30951;43.994;26.260;2024-01-16T14:31:26;5.45;;;3.75;;
45208;SDS011;30951;43.994;26.260;2024-01-16T14:33:52;4.30;;;2.75;;
45208;SDS011;30951;43.994;26.260;2024-01-16T14:36:18;7.93;;;2.70;;